sensor_id;sensor_type;location;lat;lon;timestamp;P1;durP1;ratioP1;P2;durP2;ratioP2
12567;SDS011;6349;50.904;6.136;2023-04-22T00:01:58;3.27;;;2.97;;
12567;SDS011;6349;50.904;6.136;2023-04-22T00:04:00;3.00;;;2.70;;
12567;SDS011;6349;50.904;6.136;2023-04-22T00:06:02;3.13;;;2.83;;
12567;SDS011;6349;50.904;6.136;2023-04-22T00:08:04;3.07;;;2.67;;
12567;SDS011;6349;50.904;6.136;2023-04-22T00:10:06;3.93;;;2.80;;
12567;SDS011;6349;50.904;6.136;2023-04-22T00:12:09;3.17;;;2.73;;
12567;SDS011;6349;50.904;6.136;2023-04-22T00:14:12;2.73;;;2.47;;
12567;SDS011;6349;50.904;6.136;2023-04-22T00:16:14;4.60;;;2.87;;
12567;SDS011;6349;50.904;6.136;2023-04-22T00:18:16;3.17;;;2.80;;
12567;SDS011;6349;50.904;6.136;2023-04-22T00:20:18;2.67;;;2.37;;
12567;SDS011;6349;50.904;6.136;2023-04-22T00:22:22;3.67;;;2.90;;
12567;SDS011;6349;50.904;6.136;2023-04-22T00:24:24;3.70;;;2.70;;
12567;SDS011;6349;50.904;6.136;2023-04-22T00:26:26;3.87;;;2.50;;
12567;SDS011;6349;50.904;6.136;2023-04-22T00:28:29;3.13;;;2.80;;
12567;SDS011;6349;50.904;6.136;2023-04-22T00:30:31;3.63;;;2.80;;
12567;SDS011;6349;50.904;6.136;2023-04-22T00:32:33;2.93;;;2.63;;
12567;SDS011;6349;50.904;6.136;2023-04-22T00:34:35;4.67;;;2.90;;
12567;SDS011;6349;50.904;6.136;2023-04-22T00:36:37;2.87;;;2.63;;
12567;SDS011;6349;50.904;6.136;2023-04-22T00:38:40;3.77;;;2.77;;
12567;SDS011;6349;50.904;6.136;2023-04-22T00:40:47;3.87;;;2.83;;
12567;SDS011;6349;50.904;6.136;2023-04-22T00:42:49;3.53;;;3.00;;
12567;SDS011;6349;50.904;6.136;2023-04-22T00:44:51;3.17;;;2.87;;
12567;SDS011;6349;50.904;6.136;2023-04-22T00:46:53;3.73;;;3.00;;
12567;SDS011;6349;50.904;6.136;2023-04-22T00:48:55;3.43;;;3.13;;
12567;SDS011;6349;50.904;6.136;2023-04-22T00:50:58;3.40;;;3.10;;
12567;SDS011;6349;50.904;6.136;2023-04-22T00:52:59;4.10;;;3.23;;
12567;SDS011;6349;50.904;6.136;2023-04-22T00:55:01;3.13;;;2.83;;
12567;SDS011;6349;50.904;6.136;2023-04-22T00:57:03;4.07;;;3.20;;
12567;SDS011;6349;50.904;6.136;2023-04-22T00:59:06;4.20;;;3.47;;
12567;SDS011;6349;50.904;6.136;2023-04-22T01:01:10;4.37;;;3.37;;
12567;SDS011;6349;50.904;6.136;2023-04-22T01:03:13;4.10;;;3.20;;
12567;SDS011;6349;50.904;6.136;2023-04-22T01:05:15;4.10;;;3.13;;
12567;SDS011;6349;50.904;6.136;2023-04-22T01:07:17;2.90;;;2.70;;
12567;SDS011;6349;50.904;6.136;2023-04-22T01:09:19;3.67;;;3.30;;
12567;SDS011;6349;50.904;6.136;2023-04-22T01:11:21;3.27;;;2.83;;
12567;SDS011;6349;50.904;6.136;2023-04-22T01:13:24;3.80;;;3.33;;
12567;SDS011;6349;50.904;6.136;2023-04-22T01:15:26;3.97;;;3.37;;
12567;SDS011;6349;50.904;6.136;2023-04-22T01:17:28;4.07;;;3.67;;
12567;SDS011;6349;50.904;6.136;2023-04-22T01:19:31;4.07;;;3.67;;
12567;SDS011;6349;50.904;6.136;2023-04-22T01:21:33;3.70;;;3.40;;
12567;SDS011;6349;50.904;6.136;2023-04-22T01:23:35;4.00;;;3.67;;
12567;SDS011;6349;50.904;6.136;2023-04-22T01:25:38;4.00;;;3.53;;
12567;SDS011;6349;50.904;6.136;2023-04-22T01:27:40;3.87;;;3.47;;
12567;SDS011;6349;50.904;6.136;2023-04-22T01:29:42;3.60;;;3.30;;
12567;SDS011;6349;50.904;6.136;2023-04-22T01:31:44;3.93;;;3.53;;
12567;SDS011;6349;50.904;6.136;2023-04-22T01:33:47;3.80;;;3.40;;
12567;SDS011;6349;50.904;6.136;2023-04-22T01:35:49;3.77;;;3.30;;
12567;SDS011;6349;50.904;6.136;2023-04-22T01:37:54;3.60;;;3.30;;
12567;SDS011;6349;50.904;6.136;2023-04-22T01:39:58;4.20;;;3.80;;
12567;SDS011;6349;50.904;6.136;2023-04-22T01:42:01;4.20;;;3.60;;
12567;SDS011;6349;50.904;6.136;2023-04-22T01:44:03;4.03;;;3.63;;
12567;SDS011;6349;50.904;6.136;2023-04-22T01:46:05;4.30;;;3.80;;
12567;SDS011;6349;50.904;6.136;2023-04-22T01:48:08;3.97;;;3.50;;
12567;SDS011;6349;50.904;6.136;2023-04-22T01:50:11;4.77;;;4.00;;
12567;SDS011;6349;50.904;6.136;2023-04-22T01:52:13;4.17;;;3.77;;
12567;SDS011;6349;50.904;6.136;2023-04-22T01:54:15;4.73;;;3.80;;
12567;SDS011;6349;50.904;6.136;2023-04-22T01:56:17;4.20;;;3.80;;
12567;SDS011;6349;50.904;6.136;2023-04-22T01:58:19;4.50;;;4.03;;
12567;SDS011;6349;50.904;6.136;2023-04-22T02:00:21;3.80;;;3.50;;
12567;SDS011;6349;50.904;6.136;2023-04-22T02:02:23;4.03;;;3.63;;
12567;SDS011;6349;50.904;6.136;2023-04-22T02:04:24;4.47;;;4.07;;
12567;SDS011;6349;50.904;6.136;2023-04-22T02:06:26;4.50;;;4.10;;
12567;SDS011;6349;50.904;6.136;2023-04-22T02:08:28;5.47;;;3.83;;
12567;SDS011;6349;50.904;6.136;2023-04-22T02:10:30;4.33;;;3.93;;
12567;SDS011;6349;50.904;6.136;2023-04-22T02:12:32;5.03;;;4.50;;
12567;SDS011;6349;50.904;6.136;2023-04-22T02:14:34;4.30;;;3.90;;
12567;SDS011;6349;50.904;6.136;2023-04-22T02:16:36;5.90;;;4.20;;
12567;SDS011;6349;50.904;6.136;2023-04-22T02:18:38;4.97;;;4.30;;
12567;SDS011;6349;50.904;6.136;2023-04-22T02:20:40;6.67;;;4.30;;
12567;SDS011;6349;50.904;6.136;2023-04-22T02:22:41;4.83;;;4.33;;
12567;SDS011;6349;50.904;6.136;2023-04-22T02:24:44;4.80;;;4.40;;
12567;SDS011;6349;50.904;6.136;2023-04-22T02:26:46;5.13;;;4.60;;
12567;SDS011;6349;50.904;6.136;2023-04-22T02:28:49;7.17;;;4.83;;
12567;SDS011;6349;50.904;6.136;2023-04-22T02:30:51;6.00;;;4.80;;
12567;SDS011;6349;50.904;6.136;2023-04-22T02:32:53;5.23;;;4.73;;
12567;SDS011;6349;50.904;6.136;2023-04-22T02:34:55;5.67;;;4.70;;
12567;SDS011;6349;50.904;6.136;2023-04-22T02:36:56;5.13;;;4.63;;
12567;SDS011;6349;50.904;6.136;2023-04-22T02:38:59;5.30;;;4.80;;
12567;SDS011;6349;50.904;6.136;2023-04-22T02:41:06;5.73;;;5.13;;
12567;SDS011;6349;50.904;6.136;2023-04-22T02:43:07;5.83;;;5.23;;
12567;SDS011;6349;50.904;6.136;2023-04-22T02:45:10;5.90;;;5.20;;
12567;SDS011;6349;50.904;6.136;2023-04-22T02:47:11;5.70;;;5.17;;
12567;SDS011;6349;50.904;6.136;2023-04-22T02:49:13;6.20;;;5.60;;
12567;SDS011;6349;50.904;6.136;2023-04-22T02:51:15;6.20;;;5.20;;
12567;SDS011;6349;50.904;6.136;2023-04-22T02:53:17;6.93;;;5.30;;
12567;SDS011;6349;50.904;6.136;2023-04-22T02:55:18;5.33;;;4.83;;
12567;SDS011;6349;50.904;6.136;2023-04-22T02:57:20;9.50;;;6.00;;
12567;SDS011;6349;50.904;6.136;2023-04-22T02:59:22;5.87;;;5.37;;
12567;SDS011;6349;50.904;6.136;2023-04-22T03:01:24;6.50;;;5.47;;
12567;SDS011;6349;50.904;6.136;2023-04-22T03:03:26;5.83;;;5.23;;
12567;SDS011;6349;50.904;6.136;2023-04-22T03:05:27;6.53;;;5.40;;
12567;SDS011;6349;50.904;6.136;2023-04-22T03:07:29;6.27;;;5.67;;
12567;SDS011;6349;50.904;6.136;2023-04-22T03:09:31;6.00;;;5.40;;
12567;SDS011;6349;50.904;6.136;2023-04-22T03:11:33;7.03;;;5.70;;
12567;SDS011;6349;50.904;6.136;2023-04-22T03:13:35;6.07;;;5.47;;
12567;SDS011;6349;50.904;6.136;2023-04-22T03:15:39;5.70;;;5.20;;
12567;SDS011;6349;50.904;6.136;2023-04-22T03:17:41;6.00;;;5.40;;
12567;SDS011;6349;50.904;6.136;2023-04-22T03:19:43;6.20;;;5.60;;
12567;SDS011;6349;50.904;6.136;2023-04-22T03:21:45;5.73;;;5.23;;
12567;SDS011;6349;50.904;6.136;2023-04-22T03:23:47;6.47;;;5.40;;
12567;SDS011;6349;50.904;6.136;2023-04-22T03:25:49;6.10;;;5.50;;
12567;SDS011;6349;50.904;6.136;2023-04-22T03:27:51;6.07;;;5.50;;
12567;SDS011;6349;50.904;6.136;2023-04-22T03:29:53;6.40;;;5.33;;
12567;SDS011;6349;50.904;6.136;2023-04-22T03:31:55;6.20;;;5.17;;
12567;SDS011;6349;50.904;6.136;2023-04-22T03:33:56;7.23;;;5.67;;
12567;SDS011;6349;50.904;6.136;2023-04-22T03:35:58;5.80;;;5.30;;
12567;SDS011;6349;50.904;6.136;2023-04-22T03:37:59;6.30;;;5.60;;
12567;SDS011;6349;50.904;6.136;2023-04-22T03:40:01;6.47;;;5.80;;
12567;SDS011;6349;50.904;6.136;2023-04-22T03:42:02;6.43;;;5.83;;
12567;SDS011;6349;50.904;6.136;2023-04-22T03:44:06;6.43;;;5.83;;
12567;SDS011;6349;50.904;6.136;2023-04-22T03:46:08;6.20;;;5.60;;
12567;SDS011;6349;50.904;6.136;2023-04-22T03:48:10;6.73;;;6.13;;
12567;SDS011;6349;50.904;6.136;2023-04-22T03:50:11;7.33;;;6.37;;
12567;SDS011;6349;50.904;6.136;2023-04-22T03:52:13;6.93;;;6.00;;
12567;SDS011;6349;50.904;6.136;2023-04-22T03:54:15;6.13;;;5.53;;
12567;SDS011;6349;50.904;6.136;2023-04-22T03:56:17;6.87;;;6.17;;
12567;SDS011;6349;50.904;6.136;2023-04-22T03:58:19;7.93;;;6.33;;
12567;SDS011;6349;50.904;6.136;2023-04-22T04:00:20;6.90;;;5.70;;
12567;SDS011;6349;50.904;6.136;2023-04-22T04:02:22;6.90;;;6.20;;
12567;SDS011;6349;50.904;6.136;2023-04-22T04:04:24;7.00;;;6.30;;
12567;SDS011;6349;50.904;6.136;2023-04-22T04:06:29;6.57;;;5.93;;
12567;SDS011;6349;50.904;6.136;2023-04-22T04:08:32;6.57;;;5.87;;
12567;SDS011;6349;50.904;6.136;2023-04-22T04:10:34;7.90;;;6.50;;
12567;SDS011;6349;50.904;6.136;2023-04-22T04:12:37;7.17;;;6.57;;
12567;SDS011;6349;50.904;6.136;2023-04-22T04:14:38;7.20;;;6.50;;
12567;SDS011;6349;50.904;6.136;2023-04-22T04:16:41;7.57;;;6.87;;
12567;SDS011;6349;50.904;6.136;2023-04-22T04:18:42;7.20;;;6.47;;
12567;SDS011;6349;50.904;6.136;2023-04-22T04:20:44;7.80;;;7.00;;
12567;SDS011;6349;50.904;6.136;2023-04-22T04:22:46;8.43;;;7.13;;
12567;SDS011;6349;50.904;6.136;2023-04-22T04:24:48;7.63;;;6.30;;
12567;SDS011;6349;50.904;6.136;2023-04-22T04:26:50;7.07;;;6.37;;
12567;SDS011;6349;50.904;6.136;2023-04-22T04:28:52;7.83;;;7.03;;
12567;SDS011;6349;50.904;6.136;2023-04-22T04:30:54;7.70;;;6.80;;
12567;SDS011;6349;50.904;6.136;2023-04-22T04:32:56;7.33;;;6.50;;
12567;SDS011;6349;50.904;6.136;2023-04-22T04:34:58;7.73;;;6.93;;
12567;SDS011;6349;50.904;6.136;2023-04-22T04:37:02;9.00;;;6.50;;
12567;SDS011;6349;50.904;6.136;2023-04-22T04:39:02;9.53;;;6.63;;
12567;SDS011;6349;50.904;6.136;2023-04-22T04:41:04;7.80;;;6.67;;
12567;SDS011;6349;50.904;6.136;2023-04-22T04:43:08;8.70;;;6.80;;
12567;SDS011;6349;50.904;6.136;2023-04-22T04:45:10;8.13;;;6.23;;
12567;SDS011;6349;50.904;6.136;2023-04-22T04:47:12;7.67;;;6.47;;
12567;SDS011;6349;50.904;6.136;2023-04-22T04:49:15;6.67;;;6.07;;
12567;SDS011;6349;50.904;6.136;2023-04-22T04:51:16;6.97;;;5.70;;
12567;SDS011;6349;50.904;6.136;2023-04-22T04:53:19;6.17;;;5.57;;
12567;SDS011;6349;50.904;6.136;2023-04-22T04:55:22;8.03;;;5.67;;
12567;SDS011;6349;50.904;6.136;2023-04-22T04:57:24;7.47;;;5.90;;
12567;SDS011;6349;50.904;6.136;2023-04-22T04:59:26;7.07;;;6.10;;
12567;SDS011;6349;50.904;6.136;2023-04-22T05:01:29;6.10;;;5.50;;
12567;SDS011;6349;50.904;6.136;2023-04-22T05:03:30;6.30;;;5.70;;
12567;SDS011;6349;50.904;6.136;2023-04-22T05:05:32;6.50;;;5.73;;
12567;SDS011;6349;50.904;6.136;2023-04-22T05:07:34;6.13;;;5.53;;
12567;SDS011;6349;50.904;6.136;2023-04-22T05:09:36;6.57;;;5.27;;
12567;SDS011;6349;50.904;6.136;2023-04-22T05:11:38;6.70;;;5.50;;
12567;SDS011;6349;50.904;6.136;2023-04-22T05:13:40;6.30;;;5.70;;
12567;SDS011;6349;50.904;6.136;2023-04-22T05:15:42;6.67;;;5.77;;
12567;SDS011;6349;50.904;6.136;2023-04-22T05:17:44;6.60;;;5.57;;
12567;SDS011;6349;50.904;6.136;2023-04-22T05:19:46;6.63;;;5.93;;
12567;SDS011;6349;50.904;6.136;2023-04-22T05:21:48;5.77;;;5.27;;
12567;SDS011;6349;50.904;6.136;2023-04-22T05:23:49;8.60;;;5.80;;
12567;SDS011;6349;50.904;6.136;2023-04-22T05:25:51;6.57;;;5.97;;
12567;SDS011;6349;50.904;6.136;2023-04-22T05:27:53;10.20;;;6.20;;
12567;SDS011;6349;50.904;6.136;2023-04-22T05:29:55;6.20;;;5.60;;
12567;SDS011;6349;50.904;6.136;2023-04-22T05:31:57;6.13;;;5.53;;
12567;SDS011;6349;50.904;6.136;2023-04-22T05:33:59;6.70;;;5.20;;
12567;SDS011;6349;50.904;6.136;2023-04-22T05:36:00;6.00;;;5.10;;
12567;SDS011;6349;50.904;6.136;2023-04-22T05:38:02;8.47;;;5.57;;
12567;SDS011;6349;50.904;6.136;2023-04-22T05:40:03;7.13;;;6.43;;
12567;SDS011;6349;50.904;6.136;2023-04-22T05:42:05;6.00;;;5.40;;
12567;SDS011;6349;50.904;6.136;2023-04-22T05:44:07;6.57;;;5.33;;
12567;SDS011;6349;50.904;6.136;2023-04-22T05:46:09;5.90;;;5.40;;
12567;SDS011;6349;50.904;6.136;2023-04-22T05:48:11;9.47;;;5.20;;
12567;SDS011;6349;50.904;6.136;2023-04-22T05:50:13;6.83;;;5.40;;
12567;SDS011;6349;50.904;6.136;2023-04-22T05:52:14;5.90;;;5.30;;
12567;SDS011;6349;50.904;6.136;2023-04-22T05:54:17;5.97;;;5.20;;
12567;SDS011;6349;50.904;6.136;2023-04-22T05:56:19;5.30;;;4.80;;
12567;SDS011;6349;50.904;6.136;2023-04-22T05:58:21;5.00;;;4.60;;
12567;SDS011;6349;50.904;6.136;2023-04-22T06:00:23;6.33;;;5.33;;
12567;SDS011;6349;50.904;6.136;2023-04-22T06:02:25;6.70;;;5.33;;
12567;SDS011;6349;50.904;6.136;2023-04-22T06:04:27;5.33;;;4.83;;
12567;SDS011;6349;50.904;6.136;2023-04-22T06:06:29;5.87;;;5.23;;
12567;SDS011;6349;50.904;6.136;2023-04-22T06:08:31;5.57;;;4.90;;
12567;SDS011;6349;50.904;6.136;2023-04-22T06:10:33;6.07;;;5.47;;
12567;SDS011;6349;50.904;6.136;2023-04-22T06:12:35;6.80;;;5.17;;
12567;SDS011;6349;50.904;6.136;2023-04-22T06:14:36;7.33;;;5.53;;
12567;SDS011;6349;50.904;6.136;2023-04-22T06:16:38;5.27;;;4.77;;
12567;SDS011;6349;50.904;6.136;2023-04-22T06:18:40;5.60;;;5.10;;
12567;SDS011;6349;50.904;6.136;2023-04-22T06:20:44;10.13;;;5.30;;
12567;SDS011;6349;50.904;6.136;2023-04-22T06:22:46;5.97;;;4.90;;
12567;SDS011;6349;50.904;6.136;2023-04-22T06:24:47;5.70;;;5.10;;
12567;SDS011;6349;50.904;6.136;2023-04-22T06:26:49;8.70;;;5.30;;
12567;SDS011;6349;50.904;6.136;2023-04-22T06:28:52;5.07;;;4.67;;
12567;SDS011;6349;50.904;6.136;2023-04-22T06:30:53;5.43;;;4.93;;
12567;SDS011;6349;50.904;6.136;2023-04-22T06:32:55;6.43;;;5.17;;
12567;SDS011;6349;50.904;6.136;2023-04-22T06:34:57;6.00;;;5.40;;
12567;SDS011;6349;50.904;6.136;2023-04-22T06:36:58;6.20;;;5.60;;
12567;SDS011;6349;50.904;6.136;2023-04-22T06:39:00;6.63;;;5.40;;
12567;SDS011;6349;50.904;6.136;2023-04-22T06:41:03;6.53;;;5.00;;
12567;SDS011;6349;50.904;6.136;2023-04-22T06:43:05;5.77;;;5.27;;
12567;SDS011;6349;50.904;6.136;2023-04-22T06:45:06;7.97;;;5.57;;
12567;SDS011;6349;50.904;6.136;2023-04-22T06:47:13;5.97;;;5.37;;
12567;SDS011;6349;50.904;6.136;2023-04-22T06:49:15;5.30;;;4.77;;
12567;SDS011;6349;50.904;6.136;2023-04-22T06:51:16;5.20;;;4.70;;
12567;SDS011;6349;50.904;6.136;2023-04-22T06:53:18;5.37;;;4.87;;
12567;SDS011;6349;50.904;6.136;2023-04-22T06:55:20;6.53;;;4.87;;
12567;SDS011;6349;50.904;6.136;2023-04-22T06:57:22;6.30;;;4.80;;
12567;SDS011;6349;50.904;6.136;2023-04-22T06:59:24;5.57;;;5.00;;
12567;SDS011;6349;50.904;6.136;2023-04-22T07:01:26;5.50;;;5.03;;
12567;SDS011;6349;50.904;6.136;2023-04-22T07:03:27;6.50;;;5.30;;
12567;SDS011;6349;50.904;6.136;2023-04-22T07:05:29;5.30;;;4.80;;
12567;SDS011;6349;50.904;6.136;2023-04-22T07:07:32;5.20;;;4.70;;
12567;SDS011;6349;50.904;6.136;2023-04-22T07:09:34;6.30;;;4.67;;
12567;SDS011;6349;50.904;6.136;2023-04-22T07:11:36;5.37;;;4.27;;
12567;SDS011;6349;50.904;6.136;2023-04-22T07:13:38;6.93;;;4.70;;
12567;SDS011;6349;50.904;6.136;2023-04-22T07:15:39;6.30;;;4.87;;
12567;SDS011;6349;50.904;6.136;2023-04-22T07:17:46;4.90;;;4.50;;
12567;SDS011;6349;50.904;6.136;2023-04-22T07:19:48;5.43;;;4.10;;
12567;SDS011;6349;50.904;6.136;2023-04-22T07:21:50;5.20;;;4.70;;
12567;SDS011;6349;50.904;6.136;2023-04-22T07:23:52;4.30;;;3.90;;
12567;SDS011;6349;50.904;6.136;2023-04-22T07:25:54;4.30;;;3.70;;
12567;SDS011;6349;50.904;6.136;2023-04-22T07:27:56;4.50;;;4.10;;
12567;SDS011;6349;50.904;6.136;2023-04-22T07:29:58;4.60;;;3.60;;
12567;SDS011;6349;50.904;6.136;2023-04-22T07:32:00;4.63;;;3.90;;
12567;SDS011;6349;50.904;6.136;2023-04-22T07:34:02;3.80;;;3.50;;
12567;SDS011;6349;50.904;6.136;2023-04-22T07:36:03;3.80;;;3.50;;
12567;SDS011;6349;50.904;6.136;2023-04-22T07:38:06;3.90;;;3.40;;
12567;SDS011;6349;50.904;6.136;2023-04-22T07:40:08;3.40;;;3.10;;
12567;SDS011;6349;50.904;6.136;2023-04-22T07:42:11;3.80;;;2.60;;
12567;SDS011;6349;50.904;6.136;2023-04-22T07:44:14;2.67;;;2.47;;
12567;SDS011;6349;50.904;6.136;2023-04-22T07:46:19;2.40;;;2.20;;
12567;SDS011;6349;50.904;6.136;2023-04-22T07:48:21;4.43;;;2.60;;
12567;SDS011;6349;50.904;6.136;2023-04-22T07:50:23;2.97;;;2.40;;
12567;SDS011;6349;50.904;6.136;2023-04-22T07:52:25;2.73;;;2.30;;
12567;SDS011;6349;50.904;6.136;2023-04-22T07:54:27;2.47;;;2.27;;
12567;SDS011;6349;50.904;6.136;2023-04-22T07:56:30;3.20;;;2.77;;
12567;SDS011;6349;50.904;6.136;2023-04-22T07:58:31;3.23;;;2.60;;
12567;SDS011;6349;50.904;6.136;2023-04-22T08:00:35;3.55;;;2.85;;
12567;SDS011;6349;50.904;6.136;2023-04-22T08:02:35;2.90;;;2.70;;
12567;SDS011;6349;50.904;6.136;2023-04-22T08:04:37;3.13;;;2.65;;
12567;SDS011;6349;50.904;6.136;2023-04-22T08:06:38;3.00;;;2.40;;
12567;SDS011;6349;50.904;6.136;2023-04-22T08:08:40;3.10;;;2.20;;
12567;SDS011;6349;50.904;6.136;2023-04-22T08:10:41;2.58;;;2.10;;
12567;SDS011;6349;50.904;6.136;2023-04-22T08:12:43;2.60;;;2.22;;
12567;SDS011;6349;50.904;6.136;2023-04-22T08:14:46;2.72;;;2.40;;
12567;SDS011;6349;50.904;6.136;2023-04-22T08:16:46;3.97;;;2.10;;
12567;SDS011;6349;50.904;6.136;2023-04-22T08:18:48;2.60;;;2.05;;
12567;SDS011;6349;50.904;6.136;2023-04-22T08:20:49;2.40;;;2.20;;
12567;SDS011;6349;50.904;6.136;2023-04-22T08:22:53;2.30;;;2.10;;
12567;SDS011;6349;50.904;6.136;2023-04-22T08:24:58;2.78;;;2.38;;
12567;SDS011;6349;50.904;6.136;2023-04-22T08:26:59;1.98;;;1.83;;
12567;SDS011;6349;50.904;6.136;2023-04-22T08:29:04;2.95;;;2.15;;
12567;SDS011;6349;50.904;6.136;2023-04-22T08:31:05;4.03;;;2.13;;
12567;SDS011;6349;50.904;6.136;2023-04-22T08:33:10;4.85;;;2.17;;
12567;SDS011;6349;50.904;6.136;2023-04-22T08:35:11;2.63;;;2.22;;
12567;SDS011;6349;50.904;6.136;2023-04-22T08:37:13;2.55;;;2.35;;
12567;SDS011;6349;50.904;6.136;2023-04-22T08:39:15;2.50;;;2.10;;
12567;SDS011;6349;50.904;6.136;2023-04-22T08:41:17;3.05;;;2.08;;
12567;SDS011;6349;50.904;6.136;2023-04-22T08:43:19;2.40;;;2.20;;
12567;SDS011;6349;50.904;6.136;2023-04-22T08:45:20;2.40;;;2.20;;
12567;SDS011;6349;50.904;6.136;2023-04-22T08:47:21;2.50;;;2.30;;
12567;SDS011;6349;50.904;6.136;2023-04-22T08:49:25;2.20;;;2.05;;
12567;SDS011;6349;50.904;6.136;2023-04-22T08:51:29;2.53;;;2.05;;
12567;SDS011;6349;50.904;6.136;2023-04-22T08:53:36;2.83;;;1.77;;
12567;SDS011;6349;50.904;6.136;2023-04-22T08:55:37;2.25;;;2.05;;
12567;SDS011;6349;50.904;6.136;2023-04-22T08:57:43;2.42;;;2.22;;
12567;SDS011;6349;50.904;6.136;2023-04-22T08:59:46;3.03;;;2.47;;
12567;SDS011;6349;50.904;6.136;2023-04-22T09:01:51;3.05;;;2.38;;
12567;SDS011;6349;50.904;6.136;2023-04-22T09:03:54;2.50;;;2.00;;
12567;SDS011;6349;50.904;6.136;2023-04-22T09:06:03;6.78;;;2.22;;
12567;SDS011;6349;50.904;6.136;2023-04-22T09:08:08;4.07;;;2.25;;
12567;SDS011;6349;50.904;6.136;2023-04-22T09:10:12;3.38;;;2.50;;
12567;SDS011;6349;50.904;6.136;2023-04-22T09:12:14;2.50;;;2.20;;
12567;SDS011;6349;50.904;6.136;2023-04-22T09:14:19;1.92;;;1.83;;
12567;SDS011;6349;50.904;6.136;2023-04-22T09:16:21;2.30;;;2.10;;
12567;SDS011;6349;50.904;6.136;2023-04-22T09:18:23;2.38;;;2.10;;
12567;SDS011;6349;50.904;6.136;2023-04-22T09:20:26;2.33;;;2.13;;
12567;SDS011;6349;50.904;6.136;2023-04-22T09:22:36;2.13;;;1.92;;
12567;SDS011;6349;50.904;6.136;2023-04-22T09:24:43;2.92;;;2.00;;
12567;SDS011;6349;50.904;6.136;2023-04-22T09:26:51;2.40;;;2.13;;
12567;SDS011;6349;50.904;6.136;2023-04-22T09:28:56;3.08;;;2.33;;
12567;SDS011;6349;50.904;6.136;2023-04-22T09:30:59;2.53;;;2.10;;
12567;SDS011;6349;50.904;6.136;2023-04-22T09:33:02;3.15;;;2.25;;
12567;SDS011;6349;50.904;6.136;2023-04-22T09:35:04;2.30;;;2.10;;
12567;SDS011;6349;50.904;6.136;2023-04-22T09:37:05;3.33;;;2.40;;
12567;SDS011;6349;50.904;6.136;2023-04-22T09:39:06;2.58;;;2.38;;
12567;SDS011;6349;50.904;6.136;2023-04-22T09:41:07;2.15;;;1.98;;
12567;SDS011;6349;50.904;6.136;2023-04-22T09:43:09;2.40;;;2.20;;
12567;SDS011;6349;50.904;6.136;2023-04-22T09:45:11;2.60;;;2.05;;
12567;SDS011;6349;50.904;6.136;2023-04-22T09:47:13;2.17;;;2.00;;
12567;SDS011;6349;50.904;6.136;2023-04-22T09:49:14;2.95;;;2.60;;
12567;SDS011;6349;50.904;6.136;2023-04-22T09:51:17;4.30;;;2.28;;
12567;SDS011;6349;50.904;6.136;2023-04-22T09:53:20;2.33;;;2.13;;
12567;SDS011;6349;50.904;6.136;2023-04-22T09:55:23;3.25;;;2.20;;
12567;SDS011;6349;50.904;6.136;2023-04-22T09:57:26;3.83;;;2.20;;
12567;SDS011;6349;50.904;6.136;2023-04-22T09:59:27;2.95;;;2.00;;
12567;SDS011;6349;50.904;6.136;2023-04-22T10:01:35;2.92;;;2.38;;
12567;SDS011;6349;50.904;6.136;2023-04-22T10:03:41;3.20;;;2.30;;
12567;SDS011;6349;50.904;6.136;2023-04-22T10:05:45;3.88;;;2.22;;
12567;SDS011;6349;50.904;6.136;2023-04-22T10:07:47;3.30;;;2.10;;
12567;SDS011;6349;50.904;6.136;2023-04-22T10:09:49;2.17;;;1.88;;
12567;SDS011;6349;50.904;6.136;2023-04-22T10:11:52;3.53;;;2.30;;
12567;SDS011;6349;50.904;6.136;2023-04-22T10:13:56;2.55;;;2.10;;
12567;SDS011;6349;50.904;6.136;2023-04-22T10:15:58;2.60;;;2.30;;
12567;SDS011;6349;50.904;6.136;2023-04-22T10:18:02;3.33;;;2.28;;
12567;SDS011;6349;50.904;6.136;2023-04-22T10:20:08;4.03;;;2.38;;
12567;SDS011;6349;50.904;6.136;2023-04-22T10:22:14;2.30;;;2.03;;
12567;SDS011;6349;50.904;6.136;2023-04-22T10:24:18;3.08;;;2.35;;
12567;SDS011;6349;50.904;6.136;2023-04-22T10:28:59;2.58;;;2.30;;
12567;SDS011;6349;50.904;6.136;2023-04-22T10:31:04;2.85;;;2.30;;
12567;SDS011;6349;50.904;6.136;2023-04-22T10:35:29;2.72;;;2.50;;
12567;SDS011;6349;50.904;6.136;2023-04-22T10:37:31;2.97;;;2.40;;
12567;SDS011;6349;50.904;6.136;2023-04-22T10:39:34;3.58;;;2.15;;
12567;SDS011;6349;50.904;6.136;2023-04-22T10:41:36;2.50;;;2.30;;
12567;SDS011;6349;50.904;6.136;2023-04-22T10:43:44;5.30;;;2.40;;
12567;SDS011;6349;50.904;6.136;2023-04-22T10:45:54;2.95;;;2.63;;
12567;SDS011;6349;50.904;6.136;2023-04-22T10:47:56;2.42;;;2.10;;
12567;SDS011;6349;50.904;6.136;2023-04-22T10:52:27;3.72;;;2.60;;
12567;SDS011;6349;50.904;6.136;2023-04-22T10:56:41;3.72;;;2.50;;
12567;SDS011;6349;50.904;6.136;2023-04-22T10:59:23;3.40;;;2.97;;
12567;SDS011;6349;50.904;6.136;2023-04-22T11:01:28;4.13;;;2.50;;
12567;SDS011;6349;50.904;6.136;2023-04-22T11:03:41;4.30;;;2.85;;
12567;SDS011;6349;50.904;6.136;2023-04-22T11:05:45;3.10;;;2.47;;
12567;SDS011;6349;50.904;6.136;2023-04-22T11:07:48;4.45;;;2.60;;
12567;SDS011;6349;50.904;6.136;2023-04-22T11:10:11;4.22;;;2.55;;
12567;SDS011;6349;50.904;6.136;2023-04-22T11:14:39;3.45;;;2.50;;
12567;SDS011;6349;50.904;6.136;2023-04-22T11:16:45;7.20;;;2.50;;
12567;SDS011;6349;50.904;6.136;2023-04-22T11:18:47;4.25;;;2.50;;
12567;SDS011;6349;50.904;6.136;2023-04-22T11:20:49;2.83;;;2.30;;
12567;SDS011;6349;50.904;6.136;2023-04-22T11:22:53;6.55;;;3.70;;
12567;SDS011;6349;50.904;6.136;2023-04-22T11:24:55;4.38;;;2.63;;
12567;SDS011;6349;50.904;6.136;2023-04-22T11:26:59;6.18;;;2.95;;
12567;SDS011;6349;50.904;6.136;2023-04-22T11:29:01;2.42;;;2.22;;
12567;SDS011;6349;50.904;6.136;2023-04-22T11:31:03;3.20;;;2.17;;
12567;SDS011;6349;50.904;6.136;2023-04-22T11:33:06;3.50;;;2.60;;
12567;SDS011;6349;50.904;6.136;2023-04-22T11:35:09;3.40;;;2.63;;
12567;SDS011;6349;50.904;6.136;2023-04-22T11:37:17;6.05;;;2.40;;
12567;SDS011;6349;50.904;6.136;2023-04-22T11:39:19;3.80;;;2.20;;
12567;SDS011;6349;50.904;6.136;2023-04-22T11:41:21;2.88;;;2.17;;
12567;SDS011;6349;50.904;6.136;2023-04-22T11:43:24;2.83;;;2.50;;
12567;SDS011;6349;50.904;6.136;2023-04-22T11:45:27;3.08;;;2.15;;
12567;SDS011;6349;50.904;6.136;2023-04-22T11:47:30;3.25;;;2.63;;
12567;SDS011;6349;50.904;6.136;2023-04-22T11:49:35;2.42;;;2.03;;
12567;SDS011;6349;50.904;6.136;2023-04-22T11:51:59;3.72;;;2.40;;
12567;SDS011;6349;50.904;6.136;2023-04-22T11:54:00;4.03;;;2.33;;
12567;SDS011;6349;50.904;6.136;2023-04-22T11:56:01;2.63;;;2.33;;
12567;SDS011;6349;50.904;6.136;2023-04-22T11:58:06;3.03;;;2.13;;
12567;SDS011;6349;50.904;6.136;2023-04-22T12:00:17;3.35;;;2.08;;
12567;SDS011;6349;50.904;6.136;2023-04-22T12:02:19;3.15;;;2.28;;
12567;SDS011;6349;50.904;6.136;2023-04-22T12:04:23;3.50;;;2.03;;
12567;SDS011;6349;50.904;6.136;2023-04-22T12:06:28;2.28;;;2.08;;
12567;SDS011;6349;50.904;6.136;2023-04-22T12:08:33;9.50;;;2.22;;
12567;SDS011;6349;50.904;6.136;2023-04-22T12:10:51;2.42;;;2.10;;
12567;SDS011;6349;50.904;6.136;2023-04-22T12:12:55;3.90;;;2.13;;
12567;SDS011;6349;50.904;6.136;2023-04-22T12:14:57;3.58;;;2.42;;
12567;SDS011;6349;50.904;6.136;2023-04-22T12:17:10;3.03;;;1.90;;
12567;SDS011;6349;50.904;6.136;2023-04-22T12:19:13;2.00;;;1.80;;
12567;SDS011;6349;50.904;6.136;2023-04-22T12:21:19;1.92;;;1.67;;
12567;SDS011;6349;50.904;6.136;2023-04-22T12:23:22;2.10;;;1.83;;
12567;SDS011;6349;50.904;6.136;2023-04-22T12:25:24;2.92;;;1.90;;
12567;SDS011;6349;50.904;6.136;2023-04-22T12:27:26;2.25;;;1.85;;
12567;SDS011;6349;50.904;6.136;2023-04-22T12:29:31;1.73;;;1.60;;
12567;SDS011;6349;50.904;6.136;2023-04-22T12:31:34;2.15;;;1.45;;
12567;SDS011;6349;50.904;6.136;2023-04-22T12:33:36;1.50;;;1.40;;
12567;SDS011;6349;50.904;6.136;2023-04-22T12:35:38;2.85;;;1.50;;
12567;SDS011;6349;50.904;6.136;2023-04-22T12:37:41;2.60;;;1.60;;
12567;SDS011;6349;50.904;6.136;2023-04-22T12:39:45;1.77;;;1.40;;
12567;SDS011;6349;50.904;6.136;2023-04-22T12:41:47;1.65;;;1.48;;
12567;SDS011;6349;50.904;6.136;2023-04-22T12:43:51;1.50;;;1.40;;